Time;durP1;ratioP1;P1;durP2;ratioP2;P2;SDS_P1;SDS_P2;PMS_P1;PMS_P2;Temp;Humidity;BMP_temperature;BMP_pressure;BME280_temperature;BME280_humidity;BME280_pressure;Samples;Min_cycle;Max_cycle;Signal;HPM_P1;HPM_P2
2022/12/03 00:01:31;;;;;;;35.45;15.82;;;;;;;2.25;80.50;101734.22;5055222;28;20076;-70
2022/12/03 00:03:58;;;;;;;36.13;16.45;;;;;;;2.34;81.11;101740.78;5073307;28;20127;-70
2022/12/03 00:06:25;;;;;;;39.10;16.02;;;;;;;2.28;80.93;101739.31;5061399;28;20448;-70
2022/12/03 00:08:54;;;;;;;36.83;15.98;;;;;;;2.25;81.17;101735.06;5093297;28;20052;-71
2022/12/03 00:11:21;;;;;;;36.50;15.15;;;;;;;2.25;81.28;101729.84;5075716;28;20044;-70
2022/12/03 00:13:47;;;;;;;41.45;15.95;;;;;;;2.21;82.31;101727.47;5075097;28;20036;-70
2022/12/03 00:16:14;;;;;;;38.50;16.08;;;;;;;2.39;80.90;101734.41;5042368;28;20044;-70
2022/12/03 00:18:41;;;;;;;37.00;17.20;;;;;;;2.53;80.99;101738.94;5092718;28;20044;-70
2022/12/03 00:21:08;;;;;;;37.97;15.93;;;;;;;2.41;81.04;101732.53;5075627;28;20098;-71
2022/12/03 00:23:35;;;;;;;37.22;16.55;;;;;;;2.39;81.26;101731.78;5095210;28;20094;-70
2022/12/03 00:26:05;;;;;;;35.80;16.08;;;;;;;2.49;80.51;101725.16;5097383;28;20040;-70
2022/12/03 00:28:32;;;;;;;40.45;17.02;;;;;;;2.44;80.54;101729.78;5079312;28;20080;-70
2022/12/03 00:30:59;;;;;;;37.50;16.52;;;;;;;2.51;80.50;101732.94;5096948;28;20067;-70
2022/12/03 00:33:26;;;;;;;40.83;16.63;;;;;;;2.54;80.63;101732.78;5097135;28;20398;-71
2022/12/03 00:35:53;;;;;;;42.58;17.13;;;;;;;2.52;80.51;101734.63;5078829;28;20044;-70
2022/12/03 00:38:19;;;;;;;37.50;16.00;;;;;;;2.34;81.13;101723.28;5096763;28;20491;-70
2022/12/03 00:40:46;;;;;;;41.72;17.10;;;;;;;2.46;80.88;101716.59;5078949;28;20543;-70
2022/12/03 00:43:12;;;;;;;42.97;16.90;;;;;;;2.33;81.64;101715.50;5078969;28;20044;-70
2022/12/03 00:45:39;;;;;;;41.15;17.20;;;;;;;2.17;81.78;101718.91;5096830;28;20048;-71
2022/12/03 00:48:06;;;;;;;38.30;16.35;;;;;;;2.17;81.95;101718.91;5096923;28;20147;-71
2022/12/03 00:50:32;;;;;;;41.15;17.13;;;;;;;2.24;81.74;101715.06;5078406;28;20449;-70
2022/12/03 00:52:59;;;;;;;37.63;16.30;;;;;;;2.44;81.52;101723.69;5096725;28;20608;-70
2022/12/03 00:55:26;;;;;;;43.20;17.02;;;;;;;2.45;81.08;101720.13;5096404;28;20040;-70
2022/12/03 00:57:52;;;;;;;40.03;16.85;;;;;;;2.52;80.98;101708.44;5096316;28;20494;-70
2022/12/03 01:00:23;;;;;;;36.58;15.93;;;;;;;2.55;80.89;101710.03;5062017;28;20105;-70
2022/12/03 01:02:51;;;;;;;38.45;17.23;;;;;;;2.44;81.02;101713.22;5079013;28;20139;-69
2022/12/03 01:05:19;;;;;;;39.75;16.77;;;;;;;2.44;81.05;101711.44;5077846;28;20044;-69
2022/12/03 01:07:47;;;;;;;39.88;16.27;;;;;;;2.20;81.96;101717.91;5096087;28;20127;-70
2022/12/03 01:10:14;;;;;;;36.40;15.85;;;;;;;2.38;81.70;101721.38;5096342;28;20056;-70
2022/12/03 01:12:40;;;;;;;36.17;16.52;;;;;;;2.43;81.51;101722.00;5096297;28;20087;-70
2022/12/03 01:15:08;;;;;;;41.67;17.42;;;;;;;2.40;81.67;101724.75;5096462;28;20105;-70
2022/12/03 01:17:36;;;;;;;40.92;16.38;;;;;;;2.48;81.10;101728.69;5078427;28;20054;-70
2022/12/03 01:20:06;;;;;;;40.38;16.15;;;;;;;2.49;80.95;101724.28;5096476;28;20056;-70
2022/12/03 01:22:33;;;;;;;36.90;16.02;;;;;;;2.43;80.97;101728.06;5095957;28;20055;-70
2022/12/03 01:25:00;;;;;;;38.72;17.23;;;;;;;2.36;80.92;101726.69;5096187;28;20662;-69
2022/12/03 01:27:27;;;;;;;39.20;16.35;;;;;;;2.43;81.32;101733.31;5096003;28;20047;-71
2022/12/03 01:29:54;;;;;;;38.28;16.95;;;;;;;2.33;81.49;101726.84;5078003;28;20044;-70
2022/12/03 01:32:21;;;;;;;36.42;16.40;;;;;;;2.23;82.40;101717.75;5095909;28;20047;-70
2022/12/03 01:34:51;;;;;;;42.40;16.95;;;;;;;2.12;82.68;101728.75;5077790;28;20105;-70
2022/12/03 01:37:22;;;;;;;41.38;16.80;;;;;;;2.24;82.40;101733.41;5077860;28;20048;-70
2022/12/03 01:39:48;;;;;;;39.53;17.50;;;;;;;2.13;83.07;101726.97;5095692;28;20051;-70
2022/12/03 01:42:20;;;;;;;37.03;16.58;;;;;;;2.20;83.02;101721.38;5095913;28;20051;-70
2022/12/03 01:44:47;;;;;;;39.38;16.52;;;;;;;2.33;82.74;101724.25;5095573;28;20051;-70
2022/12/03 01:47:17;;;;;;;38.35;16.65;;;;;;;2.23;82.23;101725.59;5095662;28;20428;-70
2022/12/03 01:52:26;;;;;;;39.63;17.33;;;;;;;2.17;82.70;101726.75;5111069;27;20347;-70
2022/12/03 01:54:58;;;;;;;40.75;16.90;;;;;;;2.23;82.84;101733.47;5109941;28;20058;-70
2022/12/03 01:57:45;;;;;;;44.95;18.55;;;;;;;2.15;83.31;101730.34;5111356;28;20496;-69
2022/12/03 02:00:16;;;;;;;38.83;16.33;;;;;;;2.17;82.57;101724.16;5111427;28;20047;-69
2022/12/03 02:02:43;;;;;;;40.95;17.30;;;;;;;2.18;82.74;101724.97;5111091;28;20478;-69
2022/12/03 02:05:20;;;;;;;38.85;16.27;;;;;;;2.23;83.32;101728.22;5110772;28;20043;-69
2022/12/03 02:07:47;;;;;;;43.40;17.45;;;;;;;2.32;82.77;101727.78;5110529;28;20043;-69
2022/12/03 02:10:17;;;;;;;41.15;16.27;;;;;;;2.41;82.21;101723.84;5110929;28;20052;-70
2022/12/03 02:12:49;;;;;;;38.83;16.13;;;;;;;2.44;82.18;101723.69;5111225;28;20044;-71
2022/12/03 02:15:17;;;;;;;40.78;17.15;;;;;;;2.43;82.13;101714.13;5110905;28;20044;-70
2022/12/03 02:17:44;;;;;;;41.72;17.40;;;;;;;2.49;81.62;101714.69;5110289;28;20486;-70
2022/12/03 02:20:12;;;;;;;38.53;17.23;;;;;;;2.62;82.04;101714.03;5110627;28;20405;-70
2022/12/03 02:23:05;;;;;;;40.33;17.50;;;;;;;2.60;81.72;101714.13;5109548;28;20048;-70
2022/12/03 02:25:34;;;;;;;40.83;17.63;;;;;;;2.71;81.57;101713.59;5109078;28;20048;-70
2022/12/03 02:28:03;;;;;;;39.58;17.15;;;;;;;2.69;82.26;101713.66;5110855;28;20073;-70
2022/12/03 02:30:30;;;;;;;42.72;16.77;;;;;;;2.53;81.47;101706.66;5110056;28;20036;-70
2022/12/03 02:32:58;;;;;;;41.53;17.95;;;;;;;2.55;81.69;101704.78;5110413;28;20043;-71
2022/12/03 02:35:29;;;;;;;44.78;17.75;;;;;;;2.45;81.92;101707.88;5110303;28;20055;-70
2022/12/03 02:38:05;;;;;;;40.03;17.77;;;;;;;2.37;81.84;101704.81;5110559;28;20047;-71
2022/12/03 02:40:33;;;;;;;43.47;17.77;;;;;;;2.45;82.31;101701.81;5110110;28;20067;-70
2022/12/03 02:43:02;;;;;;;47.65;17.90;;;;;;;2.49;81.80;101696.34;5110707;28;20486;-70
2022/12/03 02:45:33;;;;;;;42.03;18.45;;;;;;;2.45;82.02;101692.16;5109912;28;20119;-70
2022/12/03 02:48:05;;;;;;;45.33;17.77;;;;;;;2.41;82.38;101689.81;5108977;28;20498;-70
2022/12/03 02:50:36;;;;;;;39.63;17.60;;;;;;;2.35;82.63;101684.84;5109840;28;20063;-70
2022/12/03 02:53:12;;;;;;;44.58;18.42;;;;;;;2.42;82.21;101689.72;5109759;28;20466;-69
2022/12/03 02:55:40;;;;;;;44.78;18.17;;;;;;;2.44;82.47;101685.25;5109913;28;20554;-70
2022/12/03 02:58:08;;;;;;;39.92;16.92;;;;;;;2.54;82.45;101679.53;5109805;28;20064;-70
2022/12/03 03:00:37;;;;;;;42.70;18.30;;;;;;;2.43;82.66;101680.09;5109955;28;20085;-70
2022/12/03 03:03:06;;;;;;;41.50;17.23;;;;;;;2.47;82.83;101673.75;5100024;28;20070;-70
2022/12/03 03:05:37;;;;;;;43.70;16.55;;;;;;;2.53;82.85;101677.84;5094958;28;20059;-70
2022/12/03 03:08:05;;;;;;;44.75;17.77;;;;;;;2.43;82.20;101682.72;5096187;28;20048;-70
2022/12/03 03:10:34;;;;;;;43.63;18.25;;;;;;;2.48;83.06;101683.31;5094842;28;20052;-70
2022/12/03 03:13:05;;;;;;;45.38;18.45;;;;;;;2.60;82.65;101679.22;5096053;28;20090;-70
2022/12/03 03:15:34;;;;;;;45.10;18.40;;;;;;;2.73;82.42;101685.53;5096279;28;20078;-70
2022/12/03 03:18:01;;;;;;;41.28;16.55;;;;;;;2.69;82.70;101687.47;5096142;28;20040;-70
2022/12/03 03:20:28;;;;;;;47.63;18.85;;;;;;;2.43;82.49;101674.84;5096084;28;20040;-70
2022/12/03 03:23:13;;;;;;;41.08;17.20;;;;;;;2.38;83.23;101682.09;5095822;28;20160;-70
2022/12/03 03:25:43;;;;;;;43.03;17.85;;;;;;;2.44;83.56;101673.94;5077806;28;20095;-70
2022/12/03 03:28:11;;;;;;;39.90;18.00;;;;;;;2.37;83.15;101676.00;5095990;28;20485;-70
2022/12/03 03:30:39;;;;;;;39.70;17.33;;;;;;;2.37;83.52;101676.00;5094537;28;20066;-70
2022/12/03 03:33:07;;;;;;;42.95;17.58;;;;;;;2.24;84.50;101680.19;5094254;28;20044;-70
2022/12/03 03:35:34;;;;;;;44.45;18.48;;;;;;;2.20;85.23;101676.00;5096038;28;20139;-70
2022/12/03 03:38:01;;;;;;;48.97;18.00;;;;;;;2.07;85.55;101683.63;5075057;28;20460;-70
2022/12/03 03:40:29;;;;;;;42.90;18.15;;;;;;;2.27;85.17;101685.25;5074180;28;20048;-70
2022/12/03 03:42:56;;;;;;;46.17;17.95;;;;;;;2.32;84.94;101679.78;5074068;28;20056;-70
2022/12/03 03:45:23;;;;;;;47.78;18.52;;;;;;;2.27;84.99;101675.66;5075623;28;20127;-70
2022/12/03 03:47:56;;;;;;;44.08;17.63;;;;;;;2.26;84.58;101684.41;5057540;28;20059;-70
2022/12/03 03:50:24;;;;;;;47.65;18.77;;;;;;;2.27;85.07;101678.25;5074681;28;20490;-70
2022/12/03 03:52:51;;;;;;;43.85;17.08;;;;;;;2.23;85.00;101674.09;5075162;28;20045;-70
2022/12/03 03:55:19;;;;;;;46.47;18.95;;;;;;;2.19;84.81;101677.78;5074731;28;20040;-70
2022/12/03 03:57:47;;;;;;;43.25;18.15;;;;;;;2.08;85.56;101677.47;5074832;28;20044;-70
2022/12/03 04:00:15;;;;;;;43.45;17.40;;;;;;;1.93;85.81;101673.84;5073843;28;20044;-70
2022/12/03 04:02:42;;;;;;;42.70;16.77;;;;;;;1.92;86.40;101672.16;5073698;28;20040;-70
2022/12/03 04:05:16;;;;;;;42.88;17.60;;;;;;;2.01;86.38;101676.94;5074430;28;20051;-70
2022/12/03 04:07:42;;;;;;;46.58;17.60;;;;;;;1.95;86.01;101677.25;5125023;27;20040;-70
2022/12/03 04:12:57;;;;;;;44.92;17.40;;;;;;;2.02;85.78;101665.56;5093589;28;20496;-70
2022/12/03 04:15:25;;;;;;;43.22;17.05;;;;;;;2.08;85.75;101664.41;5093965;28;20098;-70
2022/12/03 04:20:40;;;;;;;42.05;17.30;;;;;;;2.19;85.25;101671.72;5094809;28;20119;-70
2022/12/03 04:23:07;;;;;;;41.83;16.90;;;;;;;2.13;85.38;101675.50;5094592;28;20089;-70
2022/12/03 04:28:52;;;;;;;44.00;17.83;;;;;;;2.09;85.89;101650.38;5094492;28;20066;-70
2022/12/03 04:36:40;;;;;;;47.97;17.70;;;;;;;2.29;85.00;101658.09;5094365;28;20382;-70
2022/12/03 04:39:07;;;;;;;46.80;17.90;;;;;;;2.19;84.68;101656.00;5094354;28;20531;-70
2022/12/03 04:41:34;;;;;;;52.90;18.30;;;;;;;2.16;84.85;101662.22;5093124;28;20044;-70
2022/12/03 04:46:47;;;;;;;50.03;18.63;;;;;;;2.18;84.20;101656.91;5094002;28;20123;-70
2022/12/03 04:49:13;;;;;;;49.08;17.85;;;;;;;2.33;83.65;101657.91;5093394;28;20051;-70
2022/12/03 04:51:40;;;;;;;51.08;17.95;;;;;;;2.29;84.03;101652.84;5092420;28;20044;-70
2022/12/03 04:54:07;;;;;;;49.40;18.10;;;;;;;2.22;83.22;101648.84;5094385;28;20052;-70
2022/12/03 04:56:33;;;;;;;49.05;18.05;;;;;;;2.20;83.95;101657.69;5094333;28;20051;-70
2022/12/03 04:59:00;;;;;;;52.72;18.25;;;;;;;2.03;83.76;101648.06;5093865;28;20063;-71
2022/12/03 05:01:27;;;;;;;54.78;18.40;;;;;;;2.11;83.54;101644.16;5094238;28;20044;-71
2022/12/03 05:03:53;;;;;;;52.83;17.90;;;;;;;2.15;84.00;101649.22;5094078;28;20055;-71
2022/12/03 05:06:20;;;;;;;45.58;16.75;;;;;;;2.16;83.16;101648.28;5093196;28;20044;-71
2022/12/03 05:08:47;;;;;;;48.72;17.95;;;;;;;2.21;83.16;101643.69;5092368;28;20510;-71
2022/12/03 05:11:14;;;;;;;48.00;17.10;;;;;;;2.23;82.81;101650.53;5093648;28;20659;-71
2022/12/03 05:13:41;;;;;;;44.28;16.05;;;;;;;2.15;82.93;101642.22;5092617;28;20040;-71
2022/12/03 05:16:08;;;;;;;48.85;17.30;;;;;;;2.05;83.39;101641.81;5093699;28;20044;-71
2022/12/03 05:18:35;;;;;;;50.78;17.25;;;;;;;2.15;83.67;101641.34;5092739;28;20439;-71
2022/12/03 05:21:02;;;;;;;47.15;16.70;;;;;;;2.14;82.82;101648.38;5093420;28;20409;-71
2022/12/03 05:23:30;;;;;;;49.55;16.92;;;;;;;2.09;82.57;101646.00;5093974;28;20054;-71
2022/12/03 05:25:57;;;;;;;53.00;17.33;;;;;;;1.97;82.92;101653.63;5091878;28;20401;-71
2022/12/03 05:28:24;;;;;;;63.70;17.25;;;;;;;1.94;82.93;101651.97;5093826;28;20048;-71
2022/12/03 05:30:51;;;;;;;45.88;16.90;;;;;;;1.86;82.73;101646.28;5093636;28;20052;-71
2022/12/03 05:33:17;;;;;;;48.25;16.95;;;;;;;1.98;82.95;101645.66;5092312;28;20047;-71
2022/12/03 05:35:44;;;;;;;49.03;17.08;;;;;;;2.06;82.70;101646.16;5093881;28;20493;-71
2022/12/03 05:38:12;;;;;;;49.25;16.23;;;;;;;1.85;83.01;101648.03;5093270;28;20055;-71
2022/12/03 05:40:38;;;;;;;46.53;16.70;;;;;;;1.90;83.68;101648.66;5093467;28;20044;-71
2022/12/03 05:43:05;;;;;;;45.35;15.80;;;;;;;1.96;83.00;101646.69;5075192;28;20182;-73
2022/12/03 05:45:35;;;;;;;52.42;17.00;;;;;;;1.86;83.04;101641.06;5109487;28;20140;-71
2022/12/03 05:48:03;;;;;;;51.17;16.20;;;;;;;1.72;82.81;101645.19;5093476;28;20102;-71
2022/12/03 05:50:33;;;;;;;48.78;16.80;;;;;;;1.75;83.56;101633.75;5092008;28;20060;-71
2022/12/03 05:53:14;;;;;;;50.03;16.42;;;;;;;1.77;83.83;101642.34;5092204;28;20032;-71
2022/12/03 05:55:41;;;;;;;50.47;16.83;;;;;;;1.72;83.26;101639.94;5092899;28;20048;-71
2022/12/03 05:58:08;;;;;;;46.45;15.68;;;;;;;1.87;83.46;101634.88;5093513;28;20097;-70
2022/12/03 06:00:37;;;;;;;53.50;16.27;;;;;;;1.81;82.80;101641.28;5109095;28;20505;-71
2022/12/03 06:03:07;;;;;;;53.75;16.73;;;;;;;1.87;83.09;101645.34;5092202;28;20059;-71
2022/12/03 06:05:34;;;;;;;56.53;19.77;;;;;;;1.97;82.80;101643.16;5092799;28;20052;-71
2022/12/03 06:08:01;;;;;;;52.40;16.75;;;;;;;1.98;82.63;101640.44;5092894;28;20040;-71
2022/12/03 06:10:28;;;;;;;49.33;16.65;;;;;;;1.94;82.85;101649.38;5093060;28;20419;-71
2022/12/03 06:12:55;;;;;;;47.78;16.42;;;;;;;2.08;82.86;101643.47;5091914;28;20131;-71
2022/12/03 06:15:22;;;;;;;49.45;16.75;;;;;;;1.91;82.29;101644.28;5093132;28;20086;-71
2022/12/03 06:17:50;;;;;;;52.17;17.70;;;;;;;1.93;81.78;101650.31;5092874;28;20051;-71
2022/12/03 06:20:19;;;;;;;50.50;16.02;;;;;;;1.96;81.86;101642.28;5093069;28;20040;-71
2022/12/03 06:22:46;;;;;;;48.88;16.23;;;;;;;2.10;81.99;101641.59;5093156;28;20050;-71
2022/12/03 06:25:14;;;;;;;49.80;16.05;;;;;;;2.01;81.75;101639.44;5092803;28;20040;-71
2022/12/03 06:27:41;;;;;;;49.63;15.75;;;;;;;2.00;81.99;101641.22;5093091;28;20068;-71
2022/12/03 06:30:11;;;;;;;48.00;16.60;;;;;;;2.05;81.41;101646.22;5092744;28;20040;-71
2022/12/03 06:32:38;;;;;;;44.65;16.30;;;;;;;2.06;82.06;101635.69;5091492;28;20044;-71
2022/12/03 06:35:05;;;;;;;47.33;16.30;;;;;;;2.13;80.92;101627.50;5091903;28;20129;-71
2022/12/03 06:37:32;;;;;;;49.78;17.13;;;;;;;2.12;81.59;101634.50;5094173;28;20043;-71
2022/12/03 06:39:59;;;;;;;46.30;15.98;;;;;;;2.13;81.43;101635.34;5129403;27;20048;-70
2022/12/03 06:42:25;;;;;;;47.72;17.05;;;;;;;2.20;81.86;101632.38;5096710;28;20043;-71
2022/12/03 06:44:52;;;;;;;55.00;18.20;;;;;;;1.91;81.57;101639.03;5095614;28;20040;-71
2022/12/03 06:47:19;;;;;;;51.65;16.77;;;;;;;1.80;82.70;101633.50;5095558;28;20129;-70
2022/12/03 06:49:45;;;;;;;46.70;16.25;;;;;;;1.72;82.92;101642.56;5096458;28;20412;-70
2022/12/03 06:52:12;;;;;;;48.72;17.27;;;;;;;1.86;82.27;101635.81;5094720;28;20504;-71
2022/12/03 06:54:39;;;;;;;46.78;17.05;;;;;;;1.91;82.38;101631.19;5096575;28;20078;-71
2022/12/03 06:57:06;;;;;;;61.22;18.85;;;;;;;1.97;81.94;101632.69;5096389;28;20447;-71
2022/12/03 06:59:34;;;;;;;43.65;16.02;;;;;;;1.81;82.54;101630.81;5095444;28;20123;-71
2022/12/03 07:02:01;;;;;;;51.10;16.52;;;;;;;1.54;83.03;101630.38;5096197;28;20036;-71
2022/12/03 07:04:28;;;;;;;52.53;17.08;;;;;;;1.51;83.95;101640.97;5096229;28;20093;-71
2022/12/03 07:06:54;;;;;;;49.72;17.30;;;;;;;1.53;83.94;101626.94;5092606;28;20044;-71
2022/12/03 07:09:21;;;;;;;47.03;16.33;;;;;;;1.53;83.73;101632.16;5093221;28;20066;-71
2022/12/03 07:11:48;;;;;;;48.58;17.20;;;;;;;1.39;84.47;101629.34;5095948;28;20061;-71
2022/12/03 07:14:15;;;;;;;49.78;16.90;;;;;;;1.38;83.85;101634.66;5111479;28;20110;-71
2022/12/03 07:16:42;;;;;;;49.92;17.10;;;;;;;1.31;84.61;101629.72;5096086;28;20401;-71
2022/12/03 07:19:09;;;;;;;42.72;15.43;;;;;;;1.48;84.12;101634.16;5096010;28;20048;-71
2022/12/03 07:21:36;;;;;;;54.13;17.40;;;;;;;1.46;84.12;101632.53;5095738;28;20040;-71
2022/12/03 07:24:04;;;;;;;50.97;17.42;;;;;;;1.53;83.95;101636.56;5096191;28;20048;-71
2022/12/03 07:26:31;;;;;;;45.88;16.05;;;;;;;1.50;83.98;101637.53;5061288;28;20043;-70
2022/12/03 07:28:58;;;;;;;49.47;16.73;;;;;;;1.63;82.98;101634.31;5095558;28;20097;-71
2022/12/03 07:31:25;;;;;;;50.15;16.00;;;;;;;1.45;83.25;101623.81;5094413;28;20559;-71
2022/12/03 07:33:51;;;;;;;47.67;15.52;;;;;;;1.51;83.32;101635.75;5095740;28;20168;-71
2022/12/03 07:36:18;;;;;;;48.65;17.23;;;;;;;1.43;83.33;101633.50;5095501;28;20047;-71
2022/12/03 07:38:45;;;;;;;45.50;15.73;;;;;;;1.51;82.82;101630.53;5094396;28;20044;-71
2022/12/03 07:41:11;;;;;;;47.28;14.98;;;;;;;1.39;82.88;101633.75;5095724;28;20052;-71
2022/12/03 07:43:38;;;;;;;42.80;15.30;;;;;;;1.42;83.19;101634.44;5095245;28;20040;-71
2022/12/03 07:46:05;;;;;;;45.08;16.25;;;;;;;1.32;82.93;101634.03;5095466;28;20043;-71
2022/12/03 07:48:31;;;;;;;42.78;16.33;;;;;;;1.36;83.85;101632.09;5095063;28;20040;-71
2022/12/03 07:50:58;;;;;;;44.70;16.70;;;;;;;1.42;83.03;101638.81;5095179;28;20135;-71
2022/12/03 07:53:25;;;;;;;48.65;16.02;;;;;;;1.42;82.66;101637.06;5094962;28;20371;-71
2022/12/03 07:55:51;;;;;;;44.55;16.05;;;;;;;1.34;83.23;101637.41;5094974;28;20044;-71
2022/12/03 07:58:18;;;;;;;41.97;14.95;;;;;;;1.25;83.08;101643.06;5095405;28;20048;-71
2022/12/03 08:00:46;;;;;;;48.10;16.02;;;;;;;1.41;82.92;101644.97;5094986;28;20135;-70
2022/12/03 08:03:13;;;;;;;41.05;14.90;;;;;;;1.49;82.75;101637.59;5094009;28;20044;-71
2022/12/03 08:05:39;;;;;;;46.42;15.85;;;;;;;1.56;82.37;101640.78;5093402;28;20040;-71
2022/12/03 08:08:06;;;;;;;44.42;15.15;;;;;;;1.70;82.05;101636.56;5094748;28;20044;-70
2022/12/03 08:10:33;;;;;;;46.85;16.48;;;;;;;1.72;81.50;101639.13;5094655;28;20040;-71
2022/12/03 08:13:05;;;;;;;45.55;16.45;;;;;;;1.62;81.92;101638.72;5093584;28;20504;-71
2022/12/03 08:15:32;;;;;;;41.30;14.40;;;;;;;1.75;81.03;101636.34;5095233;28;20040;-71
2022/12/03 08:18:11;;;;;;;46.90;16.23;;;;;;;1.83;81.17;101636.81;5094616;28;20044;-70
2022/12/03 08:20:41;;;;;;;47.47;15.75;;;;;;;1.85;80.55;101634.97;5094794;28;20051;-70
2022/12/03 08:23:13;;;;;;;43.65;15.02;;;;;;;1.85;80.34;101640.19;5094703;28;20128;-71
2022/12/03 08:25:41;;;;;;;47.28;15.45;;;;;;;1.76;81.28;101635.41;5093120;28;20040;-71
2022/12/03 08:28:15;;;;;;;39.92;15.20;;;;;;;1.73;80.92;101633.81;5094756;28;20086;-70
2022/12/03 08:30:43;;;;;;;42.78;15.73;;;;;;;1.72;81.53;101628.66;5094582;28;20123;-71
2022/12/03 08:33:26;;;;;;;40.85;14.52;;;;;;;1.85;81.30;101631.50;5094457;28;20539;-69
2022/12/03 08:35:53;;;;;;;42.63;15.73;;;;;;;1.85;80.73;101628.88;5093004;28;20585;-69
2022/12/03 08:38:23;;;;;;;43.63;15.52;;;;;;;1.78;80.71;101641.41;5094514;28;20052;-71
2022/12/03 08:40:51;;;;;;;49.92;16.13;;;;;;;1.75;81.21;101641.59;5094290;28;20503;-69
2022/12/03 08:43:25;;;;;;;42.03;14.60;;;;;;;1.95;79.98;101642.34;5093299;28;20069;-69
2022/12/03 08:45:54;;;;;;;46.30;15.93;;;;;;;1.93;80.36;101629.38;5094152;28;20044;-70
2022/12/03 08:48:31;;;;;;;40.03;15.13;;;;;;;1.91;79.65;101633.81;5092731;28;20093;-70
2022/12/03 08:54:03;;;;;;;40.72;15.73;;;;;;;1.73;80.15;101646.06;5104401;27;20483;-70
2022/12/03 08:56:34;;;;;;;43.05;15.57;;;;;;;1.80;81.19;101643.97;5090453;28;20048;-72
2022/12/03 08:59:27;;;;;;;41.25;15.07;;;;;;;1.78;80.33;101645.81;5090543;28;20044;-71
2022/12/03 09:01:54;;;;;;;42.20;14.90;;;;;;;1.78;80.40;101649.25;5089546;28;20110;-71
2022/12/03 09:04:27;;;;;;;40.58;14.45;;;;;;;1.92;80.76;101640.75;5090346;28;20044;-71
2022/12/03 09:06:56;;;;;;;48.17;15.88;;;;;;;1.70;80.95;101635.72;5089844;28;20092;-71
2022/12/03 09:09:23;;;;;;;47.40;15.93;;;;;;;1.82;80.28;101642.13;5090257;28;20044;-71
2022/12/03 09:11:50;;;;;;;45.72;15.70;;;;;;;1.79;80.42;101650.13;5090183;28;20032;-71
2022/12/03 09:14:19;;;;;;;47.35;17.27;;;;;;;2.02;79.87;101638.50;5088770;28;20101;-71
2022/12/03 09:16:49;;;;;;;38.25;14.88;;;;;;;2.00;79.29;101648.22;5090892;28;20048;-71
2022/12/03 09:19:16;;;;;;;43.78;16.00;;;;;;;2.13;79.52;101637.97;5088611;28;20036;-71
2022/12/03 09:21:43;;;;;;;51.13;15.70;;;;;;;2.24;78.77;101641.75;5090090;28;20055;-71
2022/12/03 09:24:09;;;;;;;48.13;15.57;;;;;;;2.13;78.69;101637.97;5090253;28;20371;-71
2022/12/03 09:26:36;;;;;;;43.70;15.90;;;;;;;2.17;78.97;101643.00;5089822;28;20551;-70
2022/12/03 09:29:03;;;;;;;37.90;14.93;;;;;;;2.28;78.16;101640.66;5089794;28;20051;-71
2022/12/03 09:31:33;;;;;;;45.30;15.43;;;;;;;2.41;77.67;101640.88;5089394;28;20470;-70
2022/12/03 09:34:01;;;;;;;41.65;15.85;;;;;;;2.53;77.74;101634.16;5090027;28;20052;-71
2022/12/03 09:36:28;;;;;;;40.40;14.77;;;;;;;2.77;76.89;101639.88;5089862;28;20048;-70
2022/12/03 09:38:55;;;;;;;45.38;15.23;;;;;;;2.63;75.97;101640.59;5089896;28;20098;-70
2022/12/03 09:41:22;;;;;;;43.67;15.82;;;;;;;2.61;76.09;101639.84;5089607;28;20075;-71
2022/12/03 09:43:51;;;;;;;39.15;14.95;;;;;;;2.53;76.10;101638.53;5089404;28;20387;-71
2022/12/03 09:46:35;;;;;;;43.08;15.60;;;;;;;2.49;77.08;101643.09;5089838;28;20054;-71
2022/12/03 09:49:04;;;;;;;40.08;16.17;;;;;;;2.57;77.40;101634.84;5089432;28;20036;-70
2022/12/03 09:51:33;;;;;;;41.20;15.52;;;;;;;2.57;77.29;101630.47;5089145;28;20075;-70
2022/12/03 09:54:03;;;;;;;39.78;15.55;;;;;;;2.72;76.21;101627.97;5089541;28;20044;-71
2022/12/03 09:56:30;;;;;;;45.03;16.05;;;;;;;2.65;76.15;101623.03;5089458;28;20040;-71
2022/12/03 09:58:58;;;;;;;48.65;15.10;;;;;;;2.49;76.47;101622.13;5104968;28;20524;-71
2022/12/03 10:01:24;;;;;;;43.67;15.18;;;;;;;2.34;76.44;101626.41;5089496;28;20052;-70
2022/12/03 10:03:54;;;;;;;39.58;14.80;;;;;;;2.48;77.02;101618.69;5082305;28;20379;-70
2022/12/03 10:06:23;;;;;;;41.58;15.45;;;;;;;2.49;76.62;101624.75;5090805;28;20448;-71
2022/12/03 10:08:53;;;;;;;42.55;15.60;;;;;;;2.49;76.34;101615.16;5075979;28;20048;-71
2022/12/03 10:11:23;;;;;;;45.40;15.75;;;;;;;2.52;76.18;101616.75;5075740;28;20041;-71
2022/12/03 10:13:53;;;;;;;38.20;14.75;;;;;;;2.66;76.45;101613.41;5075981;28;20049;-70
2022/12/03 10:16:20;;;;;;;45.35;16.23;;;;;;;2.64;76.13;101610.88;5074175;28;20040;-70
2022/12/03 10:18:51;;;;;;;40.10;14.40;;;;;;;2.72;76.29;101605.22;5075782;28;20053;-70
2022/12/03 10:21:23;;;;;;;43.63;16.05;;;;;;;2.75;75.33;101604.19;5075639;28;20123;-70
2022/12/03 10:24:22;;;;;;;40.28;15.75;;;;;;;3.01;75.27;101597.56;5075791;28;20055;-73
2022/12/03 10:26:54;;;;;;;39.17;15.63;;;;;;;2.99;74.81;101592.38;5075261;28;20044;-69
2022/12/03 10:29:25;;;;;;;42.78;16.10;;;;;;;3.07;74.63;101597.22;5073945;28;20115;-71
2022/12/03 10:32:00;;;;;;;44.55;16.00;;;;;;;3.05;75.36;101583.34;5062468;28;20075;-72
2022/12/03 10:34:29;;;;;;;;;;;;;;;3.04;74.86;101590.38;5055569;28;20041;-69
2022/12/03 10:37:18;;;;;;;40.20;15.40;;;;;;;3.10;75.17;101577.84;5066456;28;19920;-70
2022/12/03 10:39:59;;;;;;;41.67;15.07;;;;;;;3.02;74.79;101571.25;5075242;28;20490;-70
2022/12/03 10:42:29;;;;;;;45.20;16.25;;;;;;;3.15;75.40;101571.41;5075519;28;20055;-69
2022/12/03 10:45:14;;;;;;;51.30;17.70;;;;;;;3.21;74.75;101563.19;5074814;28;20117;-70
2022/12/03 10:47:43;;;;;;;49.25;17.70;;;;;;;3.28;74.45;101561.09;5074116;28;20044;-70
2022/12/03 10:50:16;;;;;;;40.63;16.80;;;;;;;3.33;74.12;101559.06;5075227;28;20048;-69
2022/12/03 10:52:44;;;;;;;41.83;15.73;;;;;;;3.37;73.31;101565.81;5074379;28;20072;-69
2022/12/03 10:55:12;;;;;;;49.58;18.15;;;;;;;3.49;74.57;101560.78;5074758;28;20079;-69
2022/12/03 10:57:39;;;;;;;44.50;15.88;;;;;;;3.49;73.05;101558.16;5074468;28;20041;-69
2022/12/03 11:00:16;;;;;;;44.17;16.42;;;;;;;3.58;72.46;101557.63;5074948;28;20049;-69
2022/12/03 11:02:43;;;;;;;43.72;16.33;;;;;;;3.75;72.53;101557.50;5074442;28;20097;-69
2022/12/03 11:05:22;;;;;;;42.00;16.85;;;;;;;3.77;71.42;101546.94;5072094;28;20048;-69
2022/12/03 11:07:49;;;;;;;47.92;16.50;;;;;;;3.83;71.76;101547.38;5070792;28;20049;-69
2022/12/03 11:10:17;;;;;;;45.78;17.25;;;;;;;4.00;71.19;101540.28;5054462;28;20486;-69
2022/12/03 11:13:24;;;;;;;49.95;18.25;;;;;;;4.02;71.05;101539.28;5054558;28;20045;-69
2022/12/03 11:15:51;;;;;;;46.63;16.90;;;;;;;3.88;71.31;101539.25;5068731;28;20053;-69
2022/12/03 11:21:28;;;;;;;44.08;17.85;;;;;;;3.27;72.45;101543.66;5104542;27;20442;-70
2022/12/03 11:26:54;;;;;;;44.60;16.70;;;;;;;3.41;73.62;101538.47;5115268;27;20350;-70
2022/12/03 11:29:49;;;;;;;48.45;17.10;;;;;;;3.54;72.73;101535.97;5110862;28;20062;-69
2022/12/03 11:35:36;;;;;;;41.65;16.92;;;;;;;3.74;72.21;101526.09;5145437;27;20417;-70
2022/12/03 11:38:44;;;;;;;44.05;17.90;;;;;;;3.42;72.96;101520.94;5110922;28;20105;-69
2022/12/03 11:44:28;;;;;;;41.22;16.55;;;;;;;4.10;71.33;101511.72;5145613;27;20194;-70
2022/12/03 11:46:56;;;;;;;42.08;16.60;;;;;;;3.73;70.99;101511.28;5130341;28;20040;-69
2022/12/03 11:49:29;;;;;;;38.67;16.42;;;;;;;3.90;70.82;101499.78;5131075;27;20465;-69
2022/12/03 11:51:59;;;;;;;43.20;17.10;;;;;;;3.89;71.10;101498.09;5130138;28;20126;-69
2022/12/03 11:54:26;;;;;;;43.95;17.30;;;;;;;3.65;72.05;101501.25;5131150;27;20039;-69
2022/12/03 11:56:54;;;;;;;43.67;16.63;;;;;;;3.58;72.17;101498.13;5131337;27;20047;-69
2022/12/03 11:59:21;;;;;;;40.05;16.30;;;;;;;3.58;72.00;101505.16;5131224;27;20039;-70
2022/12/03 12:01:48;;;;;;;39.83;16.08;;;;;;;3.43;72.86;101496.41;5131155;27;20481;-70